createdAt,value
2019-05-07T00:01:34.233Z,7.80
2019-05-07T00:04:02.093Z,7.80
2019-05-07T00:06:29.888Z,7.90
2019-05-07T00:08:57.713Z,7.90
2019-05-07T00:11:25.528Z,7.80
2019-05-07T00:13:53.360Z,7.80
2019-05-07T00:16:22.393Z,7.90
2019-05-07T00:18:52.515Z,7.90
2019-05-07T00:21:20.236Z,7.80
2019-05-07T00:23:48.091Z,7.80
2019-05-07T00:26:15.918Z,7.80
2019-05-07T00:28:43.716Z,7.80
2019-05-07T00:31:12.381Z,7.80
2019-05-07T00:33:40.379Z,7.80
2019-05-07T00:36:13.911Z,7.70
2019-05-07T00:38:43.559Z,7.70
2019-05-07T00:41:20.040Z,7.70
2019-05-07T00:43:49.859Z,7.70
2019-05-07T00:46:22.503Z,7.70
2019-05-07T00:48:52.304Z,7.70
2019-05-07T00:51:28.435Z,7.70
2019-05-07T00:53:56.228Z,7.70
2019-05-07T00:56:24.116Z,7.70
2019-05-07T00:58:52.794Z,7.60
2019-05-07T01:01:22.733Z,7.70
2019-05-07T01:03:50.389Z,7.70
2019-05-07T01:06:18.264Z,7.60
2019-05-07T01:08:46.052Z,7.60
2019-05-07T01:11:13.815Z,7.50
2019-05-07T01:13:43.194Z,7.50
2019-05-07T01:16:12.880Z,7.50
2019-05-07T01:18:42.066Z,7.50
2019-05-07T01:21:10.115Z,7.40
2019-05-07T01:23:37.892Z,7.40
2019-05-07T01:26:05.995Z,7.30
2019-05-07T01:28:52.998Z,7.30
2019-05-07T01:31:22.194Z,7.30
2019-05-07T01:33:55.091Z,7.30
2019-05-07T01:36:22.872Z,7.30
2019-05-07T01:38:52.264Z,7.30
2019-05-07T01:41:20.286Z,7.20
2019-05-07T01:43:48.069Z,7.20
2019-05-07T01:46:15.849Z,7.20
2019-05-07T01:48:43.639Z,7.20
2019-05-07T01:51:12.858Z,7.10
2019-05-07T01:53:42.927Z,7.10
2019-05-07T01:56:12.387Z,7.10
2019-05-07T01:58:42.321Z,7.00
2019-05-07T02:01:09.527Z,6.90
2019-05-07T02:04:09.278Z,6.90
2019-05-07T02:06:42.918Z,6.90
2019-05-07T02:09:31.165Z,6.80
2019-05-07T02:12:33.257Z,6.80
2019-05-07T02:15:02.652Z,6.80
2019-05-07T02:17:32.218Z,6.70
2019-05-07T02:20:02.426Z,6.70
2019-05-07T02:22:31.847Z,6.60
2019-05-07T02:24:59.144Z,6.60
2019-05-07T02:27:26.915Z,6.60
2019-05-07T02:29:54.711Z,6.60
2019-05-07T02:32:24.150Z,6.50
2019-05-07T02:34:54.459Z,6.50
2019-05-07T02:37:35.738Z,6.50
2019-05-07T02:40:22.972Z,6.50
2019-05-07T02:42:53.584Z,6.40
2019-05-07T02:45:26.126Z,6.40
2019-05-07T02:47:53.896Z,6.40
2019-05-07T02:50:27.435Z,6.40
2019-05-07T02:53:17.459Z,6.40
2019-05-07T02:55:49.081Z,6.30
2019-05-07T02:58:16.933Z,6.30
2019-05-07T03:00:44.732Z,6.30
2019-05-07T03:03:13.763Z,6.30
2019-05-07T03:05:43.182Z,6.30
2019-05-07T03:08:13.460Z,6.20
2019-05-07T03:10:43.487Z,6.20
2019-05-07T03:13:13.447Z,6.20
2019-05-07T03:15:43.207Z,6.20
2019-05-07T03:18:09.717Z,6.10
2019-05-07T03:20:45.961Z,6.10
2019-05-07T03:23:15.953Z,6.10
2019-05-07T03:26:03.989Z,6.10
2019-05-07T03:28:33.880Z,6.00
2019-05-07T03:31:09.017Z,6.00
2019-05-07T03:33:48.255Z,6.00
2019-05-07T03:36:17.234Z,5.90
2019-05-07T03:38:45.561Z,5.90
2019-05-07T03:41:13.432Z,6.00
2019-05-07T03:43:43.504Z,5.90
2019-05-07T03:46:14.087Z,5.90
2019-05-07T03:48:44.079Z,5.90
2019-05-07T03:51:13.150Z,5.90
2019-05-07T03:53:43.486Z,5.80
2019-05-07T03:56:13.087Z,5.80
2019-05-07T03:58:42.852Z,5.80
2019-05-07T04:01:13.120Z,5.80
2019-05-07T04:03:39.803Z,5.80
2019-05-07T04:06:07.598Z,5.80
2019-05-07T04:08:35.380Z,5.80
2019-05-07T04:11:03.905Z,5.90
2019-05-07T04:13:33.457Z,5.80
2019-05-07T04:16:04.050Z,5.80
2019-05-07T04:18:33.016Z,5.80
2019-05-07T04:21:03.841Z,5.80
2019-05-07T04:23:30.308Z,5.90
2019-05-07T04:26:04.783Z,5.90
2019-05-07T04:28:49.091Z,5.80
2019-05-07T04:31:16.924Z,5.90
2019-05-07T04:33:44.972Z,5.80
2019-05-07T04:36:25.498Z,5.80
2019-05-07T04:38:53.428Z,5.90
2019-05-07T04:41:23.346Z,5.90
2019-05-07T04:43:53.844Z,5.80
2019-05-07T04:46:23.313Z,5.80
2019-05-07T04:48:52.614Z,5.80
2019-05-07T04:51:25.718Z,5.80
2019-05-07T04:53:54.178Z,5.80
2019-05-07T04:56:23.810Z,5.80
2019-05-07T04:58:53.113Z,5.80
2019-05-07T05:01:23.569Z,5.80
2019-05-07T05:03:54.003Z,5.80
2019-05-07T05:06:23.855Z,5.90
2019-05-07T05:08:55.379Z,5.90
2019-05-07T05:11:20.315Z,5.90
2019-05-07T05:13:48.171Z,6.00
2019-05-07T05:16:26.745Z,6.00
2019-05-07T05:18:56.109Z,6.00
2019-05-07T05:21:32.976Z,6.00
2019-05-07T05:24:04.775Z,6.00
2019-05-07T05:26:32.655Z,6.00
2019-05-07T05:29:02.392Z,6.00
2019-05-07T05:31:30.364Z,6.10
2019-05-07T05:33:58.166Z,6.10
2019-05-07T05:36:26.008Z,6.10
2019-05-07T05:38:53.803Z,6.10
2019-05-07T05:41:22.673Z,6.20
2019-05-07T05:44:02.392Z,6.30
2019-05-07T05:46:32.021Z,6.40
2019-05-07T05:49:02.467Z,6.40
2019-05-07T05:51:55.041Z,6.40
2019-05-07T05:54:42.595Z,6.40
2019-05-07T05:57:19.545Z,6.50
2019-05-07T06:00:12.464Z,6.50
2019-05-07T06:02:53.545Z,6.50
2019-05-07T06:05:43.456Z,6.50
2019-05-07T06:08:36.640Z,6.60
2019-05-07T06:11:19.266Z,6.70
2019-05-07T06:13:54.072Z,6.80
2019-05-07T06:16:25.100Z,6.90
2019-05-07T06:19:22.597Z,6.90
2019-05-07T06:22:18.813Z,6.90
2019-05-07T06:25:15.439Z,6.90
2019-05-07T06:27:43.354Z,6.90
2019-05-07T06:30:12.120Z,7.00
2019-05-07T06:32:42.765Z,7.00
2019-05-07T06:35:12.143Z,7.10
2019-05-07T06:37:39.575Z,7.20
2019-05-07T06:40:32.964Z,7.30
2019-05-07T06:43:12.693Z,7.30
2019-05-07T06:45:43.483Z,7.40
2019-05-07T06:48:12.623Z,7.40
2019-05-07T06:50:43.216Z,7.50
2019-05-07T06:53:12.056Z,7.50
2019-05-07T06:55:39.945Z,7.60
2019-05-07T06:58:09.211Z,7.70
2019-05-07T07:01:08.299Z,7.80
2019-05-07T07:03:42.003Z,7.90
2019-05-07T07:06:23.647Z,8.00
2019-05-07T07:09:03.038Z,7.90
2019-05-07T07:11:38.500Z,7.90
2019-05-07T07:14:06.339Z,7.90
2019-05-07T07:16:34.210Z,7.90
2019-05-07T07:19:03.369Z,7.90
2019-05-07T07:21:32.705Z,7.90
2019-05-07T07:24:02.851Z,8.10
2019-05-07T07:26:30.149Z,8.20
2019-05-07T07:28:57.916Z,8.30
2019-05-07T07:31:31.741Z,8.40
2019-05-07T07:34:02.229Z,8.50
2019-05-07T07:36:32.752Z,8.60
2019-05-07T07:39:02.044Z,8.50
2019-05-07T07:41:52.266Z,8.50
2019-05-07T07:44:22.307Z,8.50
2019-05-07T07:46:49.972Z,8.60
2019-05-07T07:49:17.860Z,8.60
2019-05-07T07:51:45.974Z,8.70
2019-05-07T07:54:13.985Z,9.20
2019-05-07T07:57:02.282Z,9.50
2019-05-07T08:00:02.649Z,9.50
2019-05-07T08:02:42.673Z,9.40
2019-05-07T08:05:12.483Z,9.40
2019-05-07T08:07:42.447Z,9.40
2019-05-07T08:10:09.940Z,9.40
2019-05-07T08:12:37.849Z,9.40
2019-05-07T08:15:16.859Z,9.30
2019-05-07T08:17:35.809Z,9.30
2019-05-07T08:20:03.782Z,9.40
2019-05-07T08:22:33.010Z,9.40
2019-05-07T08:25:01.955Z,9.40
2019-05-07T08:27:29.820Z,9.40
2019-05-07T08:29:57.907Z,9.40
2019-05-07T08:32:38.565Z,9.50
2019-05-07T08:35:35.315Z,9.60
2019-05-07T08:38:03.121Z,9.70
2019-05-07T08:40:32.560Z,9.60
2019-05-07T08:43:00.644Z,9.60
2019-05-07T08:45:46.683Z,9.70
2019-05-07T08:48:19.266Z,9.80
2019-05-07T08:50:47.032Z,9.90
2019-05-07T08:53:14.846Z,10.10
2019-05-07T08:55:42.651Z,10.10
2019-05-07T08:58:12.049Z,10.00
2019-05-07T09:00:41.793Z,9.90
2019-05-07T09:03:20.113Z,10.10
2019-05-07T09:05:39.264Z,10.30
2019-05-07T09:08:07.093Z,10.20
2019-05-07T09:10:35.029Z,10.10
2019-05-07T09:13:02.933Z,10.30
2019-05-07T09:15:32.011Z,10.30
2019-05-07T09:18:02.026Z,10.40
2019-05-07T09:20:31.981Z,10.60
2019-05-07T09:23:01.982Z,10.60
2019-05-07T09:25:29.204Z,10.70
2019-05-07T09:27:57.182Z,10.70
2019-05-07T09:30:52.298Z,10.80
2019-05-07T09:33:35.643Z,10.80
2019-05-07T09:36:03.868Z,10.80
2019-05-07T09:38:32.776Z,10.90
2019-05-07T09:41:02.725Z,10.90
2019-05-07T09:43:32.280Z,10.90
2019-05-07T09:46:00.008Z,10.80
2019-05-07T09:48:27.892Z,10.90
2019-05-07T09:50:55.677Z,10.80
2019-05-07T09:53:23.484Z,10.90
2019-05-07T09:55:51.654Z,11.00
2019-05-07T09:58:33.147Z,10.90
2019-05-07T10:00:49.100Z,10.90
2019-05-07T10:03:16.994Z,10.90
2019-05-07T10:05:45.071Z,10.90
2019-05-07T10:08:13.170Z,10.80
2019-05-07T10:10:41.746Z,11.00
2019-05-07T10:13:35.496Z,11.10
2019-05-07T10:16:04.303Z,11.10
2019-05-07T10:18:32.866Z,11.30
2019-05-07T10:21:02.546Z,11.30
2019-05-07T10:23:30.308Z,11.40
2019-05-07T10:25:58.211Z,11.50
2019-05-07T10:28:26.108Z,11.70
2019-05-07T10:30:54.361Z,11.70
2019-05-07T10:33:22.965Z,11.70
2019-05-07T10:35:52.693Z,11.80
2019-05-07T10:38:21.854Z,11.80
2019-05-07T10:40:49.996Z,12.00
2019-05-07T10:43:17.984Z,12.00
2019-05-07T10:45:56.740Z,12.00
2019-05-07T10:48:56.516Z,12.00
2019-05-07T10:51:24.798Z,12.00
2019-05-07T10:53:52.632Z,12.20
2019-05-07T10:56:22.313Z,12.50
2019-05-07T10:58:52.168Z,12.50
2019-05-07T11:01:25.718Z,12.40
2019-05-07T11:03:53.517Z,12.50
2019-05-07T11:06:22.105Z,12.50
2019-05-07T11:08:51.412Z,12.70
2019-05-07T11:11:19.583Z,12.80
2019-05-07T11:13:47.412Z,12.50
2019-05-07T11:16:16.809Z,12.50
2019-05-07T11:18:46.708Z,12.60
2019-05-07T11:21:14.512Z,12.70
2019-05-07T11:23:42.379Z,12.70
2019-05-07T11:26:11.837Z,12.90
2019-05-07T11:28:39.848Z,12.80
2019-05-07T11:31:08.144Z,12.70
2019-05-07T11:33:35.938Z,12.80
2019-05-07T11:36:03.875Z,12.80
2019-05-07T11:38:33.346Z,13.00
2019-05-07T11:41:02.342Z,13.30
2019-05-07T11:43:48.748Z,13.60
2019-05-07T11:46:32.749Z,13.90
2019-05-07T11:49:19.353Z,14.20
2019-05-07T11:51:53.009Z,14.30
2019-05-07T11:54:20.852Z,14.40
2019-05-07T11:56:48.684Z,14.50
2019-05-07T11:59:16.490Z,14.60
2019-05-07T12:01:48.154Z,14.40
2019-05-07T12:04:16.247Z,14.10
2019-05-07T12:06:44.065Z,13.80
2019-05-07T12:09:12.190Z,13.50
2019-05-07T12:11:42.417Z,14.00
2019-05-07T12:14:09.816Z,14.60
2019-05-07T12:16:37.631Z,14.70
2019-05-07T12:19:05.473Z,15.20
2019-05-07T12:21:33.444Z,16.00
2019-05-07T12:24:02.137Z,15.90
2019-05-07T12:26:31.335Z,16.20
2019-05-07T12:28:59.115Z,16.50
2019-05-07T12:31:44.340Z,16.70
2019-05-07T12:34:15.824Z,16.40
2019-05-07T12:36:43.801Z,16.90
2019-05-07T12:39:12.756Z,17.40
2019-05-07T12:41:41.915Z,17.00
2019-05-07T12:44:12.899Z,17.10
2019-05-07T12:46:42.296Z,17.20
2019-05-07T12:49:11.957Z,17.80
2019-05-07T12:51:50.056Z,18.50
2019-05-07T12:54:30.095Z,18.60
2019-05-07T12:57:06.600Z,18.30
2019-05-07T12:59:34.418Z,17.50
2019-05-07T13:02:26.739Z,16.50
2019-05-07T13:04:43.120Z,17.50
2019-05-07T13:07:33.149Z,19.10
2019-05-07T13:10:02.593Z,19.80
2019-05-07T13:12:32.181Z,20.70
2019-05-07T13:15:02.768Z,21.60
2019-05-07T13:17:29.835Z,21.00
2019-05-07T13:19:57.636Z,20.20
2019-05-07T13:22:25.444Z,20.90
2019-05-07T13:24:53.242Z,21.70
2019-05-07T13:27:21.036Z,22.20
2019-05-07T13:29:48.821Z,21.80
2019-05-07T13:32:17.198Z,22.50
2019-05-07T13:34:45.547Z,23.10
2019-05-07T13:37:18.336Z,23.20
2019-05-07T13:39:51.991Z,23.60
2019-05-07T13:42:43.987Z,24.30
2019-05-07T13:45:34.616Z,24.80
2019-05-07T13:48:08.890Z,23.60
2019-05-07T13:50:36.700Z,21.90
2019-05-07T13:53:04.552Z,21.20
2019-05-07T13:55:32.503Z,22.00
2019-05-07T13:58:00.509Z,22.00
2019-05-07T14:00:33.234Z,21.60
2019-05-07T14:03:03.199Z,20.30
2019-05-07T14:05:32.379Z,19.30
2019-05-07T14:08:00.528Z,18.60
2019-05-07T14:10:28.325Z,17.50
2019-05-07T14:13:07.590Z,16.90
2019-05-07T14:15:25.653Z,18.10
2019-05-07T14:17:55.078Z,19.50
2019-05-07T14:20:23.128Z,20.30
2019-05-07T14:22:51.694Z,19.90
2019-05-07T14:25:19.618Z,18.90
2019-05-07T14:27:47.737Z,19.10
2019-05-07T14:30:16.212Z,19.60
2019-05-07T14:32:48.757Z,19.60
2019-05-07T14:35:25.220Z,19.20
2019-05-07T14:38:00.004Z,18.30
2019-05-07T14:40:27.883Z,17.70
2019-05-07T14:43:09.810Z,18.00
2019-05-07T14:45:37.739Z,19.00
2019-05-07T14:48:05.637Z,20.40
2019-05-07T14:50:33.504Z,21.20
2019-05-07T14:53:02.750Z,21.50
2019-05-07T14:55:32.484Z,19.80
2019-05-07T14:58:01.832Z,19.20
2019-05-07T15:00:29.781Z,19.20
2019-05-07T15:02:57.572Z,19.40
2019-05-07T15:05:25.843Z,19.40
2019-05-07T15:08:06.613Z,19.10
2019-05-07T15:10:23.239Z,18.40
2019-05-07T15:12:52.153Z,18.40
2019-05-07T15:15:21.968Z,18.60
2019-05-07T15:17:55.085Z,19.50
2019-05-07T15:20:22.893Z,19.90
2019-05-07T15:23:04.447Z,19.20
2019-05-07T15:25:32.343Z,19.50
2019-05-07T15:28:01.791Z,20.10
2019-05-07T15:30:37.722Z,20.50
2019-05-07T15:33:05.593Z,20.80
2019-05-07T15:35:33.521Z,20.70
2019-05-07T15:38:02.410Z,20.60
2019-05-07T15:40:32.829Z,20.00
2019-05-07T15:43:02.156Z,20.30
2019-05-07T15:45:29.568Z,19.90
2019-05-07T15:47:58.168Z,19.70
2019-05-07T15:50:28.432Z,19.30
2019-05-07T15:53:12.316Z,19.30
2019-05-07T15:55:41.734Z,19.20
2019-05-07T15:58:09.736Z,18.50
2019-05-07T16:00:38.011Z,18.60
2019-05-07T16:03:12.082Z,18.80
2019-05-07T16:05:42.234Z,18.70
2019-05-07T16:08:12.351Z,18.60
2019-05-07T16:10:42.163Z,18.50
2019-05-07T16:13:11.864Z,18.50
2019-05-07T16:15:42.337Z,18.60
2019-05-07T16:18:14.598Z,18.50
2019-05-07T16:20:42.965Z,18.80
2019-05-07T16:23:15.687Z,18.70
2019-05-07T16:25:42.117Z,18.40
2019-05-07T16:28:12.612Z,18.30
2019-05-07T16:30:39.699Z,18.40
2019-05-07T16:33:07.508Z,18.40
2019-05-07T16:35:35.383Z,18.20
2019-05-07T16:38:03.170Z,18.10
2019-05-07T16:40:32.344Z,18.30
2019-05-07T16:43:02.592Z,18.30
2019-05-07T16:45:29.860Z,18.20
2019-05-07T16:48:00.374Z,17.90
2019-05-07T16:50:27.184Z,17.80
2019-05-07T16:52:55.012Z,17.90
2019-05-07T16:55:25.805Z,17.70
2019-05-07T16:58:02.077Z,17.60
2019-05-07T17:00:37.144Z,17.80
2019-05-07T17:03:07.136Z,17.70
2019-05-07T17:05:34.942Z,17.50
2019-05-07T17:08:31.895Z,17.20
2019-05-07T17:10:59.874Z,17.60
2019-05-07T17:13:27.686Z,17.80
2019-05-07T17:15:59.288Z,18.10
2019-05-07T17:18:27.621Z,17.90
2019-05-07T17:20:55.992Z,17.60
2019-05-07T17:23:24.157Z,17.10
2019-05-07T17:25:52.561Z,16.80
2019-05-07T17:28:22.788Z,16.30
2019-05-07T17:30:52.307Z,15.90
2019-05-07T17:33:19.710Z,15.90
2019-05-07T17:35:47.484Z,15.80
2019-05-07T17:38:15.309Z,15.70
2019-05-07T17:40:43.112Z,15.70
2019-05-07T17:43:12.302Z,15.60
2019-05-07T17:45:40.330Z,15.30
2019-05-07T17:48:08.214Z,15.00
2019-05-07T17:50:44.684Z,14.90
2019-05-07T17:53:12.516Z,14.90
2019-05-07T17:55:42.173Z,15.00
2019-05-07T17:58:09.972Z,15.10
2019-05-07T18:00:38.431Z,15.00
2019-05-07T18:03:32.023Z,14.80
2019-05-07T18:06:01.979Z,14.50
2019-05-07T18:08:29.286Z,14.50
2019-05-07T18:10:57.382Z,14.50
2019-05-07T18:13:25.172Z,14.10
2019-05-07T18:15:54.253Z,13.90
2019-05-07T18:18:22.576Z,13.80
2019-05-07T18:20:50.373Z,13.70
2019-05-07T18:23:18.183Z,13.80
2019-05-07T18:25:47.005Z,13.80
2019-05-07T18:28:16.094Z,13.70
2019-05-07T18:30:44.064Z,13.60
2019-05-07T18:33:26.468Z,13.50
2019-05-07T18:35:54.272Z,13.50
2019-05-07T18:38:22.468Z,13.50
2019-05-07T18:40:50.385Z,13.30
2019-05-07T18:43:18.335Z,13.40
2019-05-07T18:45:46.099Z,13.20
2019-05-07T18:48:13.949Z,13.20
2019-05-07T18:50:42.043Z,13.30
2019-05-07T18:53:11.989Z,13.30
2019-05-07T18:55:39.451Z,13.30
2019-05-07T18:58:07.244Z,13.20
2019-05-07T19:00:38.420Z,13.20
2019-05-07T19:03:06.290Z,13.10
2019-05-07T19:05:34.095Z,12.90
2019-05-07T19:08:07.803Z,12.70
2019-05-07T19:10:32.933Z,12.70
2019-05-07T19:13:00.990Z,12.80
2019-05-07T19:15:28.863Z,12.80
2019-05-07T19:17:56.940Z,12.70
2019-05-07T19:20:24.998Z,12.70
2019-05-07T19:22:52.782Z,12.70
2019-05-07T19:25:20.932Z,12.70
2019-05-07T19:27:48.728Z,12.60
2019-05-07T19:30:17.590Z,12.60
2019-05-07T19:32:45.374Z,12.60
2019-05-07T19:35:13.283Z,12.60
2019-05-07T19:37:42.525Z,12.50
2019-05-07T19:40:12.479Z,12.40
2019-05-07T19:42:42.628Z,12.40
2019-05-07T19:45:09.884Z,12.40
2019-05-07T19:47:37.712Z,12.40
2019-05-07T19:50:05.706Z,12.40
2019-05-07T19:52:33.488Z,12.40
2019-05-07T19:55:04.604Z,12.40
2019-05-07T19:57:35.154Z,12.40
2019-05-07T20:00:03.090Z,12.20
2019-05-07T20:02:36.227Z,12.10
2019-05-07T20:05:04.149Z,12.20
2019-05-07T20:07:32.383Z,12.20
2019-05-07T20:10:02.544Z,12.10
2019-05-07T20:12:32.096Z,12.00
2019-05-07T20:14:59.409Z,12.00
2019-05-07T20:17:30.342Z,11.90
2019-05-07T20:19:56.825Z,11.90
2019-05-07T20:22:24.634Z,11.90
2019-05-07T20:24:52.842Z,11.90
2019-05-07T20:27:20.716Z,11.90
2019-05-07T20:29:48.496Z,11.80
2019-05-07T20:32:16.314Z,11.70
2019-05-07T20:34:44.076Z,11.70
2019-05-07T20:37:12.913Z,11.70
2019-05-07T20:39:42.670Z,11.60
2019-05-07T20:42:12.405Z,11.60
2019-05-07T20:44:42.445Z,11.50
2019-05-07T20:47:09.680Z,11.60
2019-05-07T20:49:37.464Z,11.60
2019-05-07T20:52:05.252Z,11.70
2019-05-07T20:54:44.132Z,11.60
2019-05-07T20:57:17.966Z,11.60
2019-05-07T20:59:45.786Z,11.60
2019-05-07T21:02:13.593Z,11.60
2019-05-07T21:04:42.434Z,11.60
2019-05-07T21:07:11.841Z,11.60
2019-05-07T21:09:42.115Z,11.50
2019-05-07T21:12:09.356Z,11.20
2019-05-07T21:14:37.135Z,11.10
2019-05-07T21:17:05.219Z,11.10
2019-05-07T21:19:33.369Z,11.20
2019-05-07T21:22:02.117Z,11.00
2019-05-07T21:24:30.175Z,10.90
2019-05-07T21:26:58.166Z,10.90
2019-05-07T21:29:25.956Z,10.90
2019-05-07T21:31:53.776Z,10.90
2019-05-07T21:34:22.992Z,10.80
2019-05-07T21:36:52.415Z,10.70
2019-05-07T21:39:22.273Z,10.60
2019-05-07T21:41:51.877Z,10.40
2019-05-07T21:44:19.456Z,10.20
2019-05-07T21:46:47.368Z,10.30
2019-05-07T21:49:15.201Z,10.20
2019-05-07T21:51:42.987Z,10.20
2019-05-07T21:54:36.120Z,10.10
2019-05-07T21:57:22.246Z,10.10
2019-05-07T22:00:08.761Z,10.10
2019-05-07T22:02:36.634Z,10.20
2019-05-07T22:05:04.452Z,10.00
2019-05-07T22:07:32.281Z,9.90
2019-05-07T22:10:02.079Z,9.80
2019-05-07T22:12:31.900Z,9.80
2019-05-07T22:14:59.131Z,9.80
2019-05-07T22:17:26.924Z,9.80
2019-05-07T22:19:55.012Z,9.90
2019-05-07T22:22:24.321Z,10.00
2019-05-07T22:24:53.123Z,10.00
2019-05-07T22:27:22.123Z,10.00
2019-05-07T22:29:50.080Z,10.00
2019-05-07T22:32:31.709Z,9.90
2019-05-07T22:35:05.251Z,9.80
2019-05-07T22:37:33.040Z,9.80
2019-05-07T22:40:02.756Z,9.70
2019-05-07T22:42:32.580Z,9.70
2019-05-07T22:44:59.869Z,9.60
2019-05-07T22:47:27.654Z,9.60
2019-05-07T22:49:55.424Z,9.50
2019-05-07T22:52:23.228Z,9.60
2019-05-07T22:54:51.004Z,9.50
2019-05-07T22:57:47.065Z,9.40
2019-05-07T23:00:22.892Z,9.30
2019-05-07T23:02:51.711Z,9.20
2019-05-07T23:05:22.854Z,9.20
2019-05-07T23:07:50.014Z,9.20
2019-05-07T23:10:17.787Z,9.20
2019-05-07T23:12:45.606Z,9.30
2019-05-07T23:15:13.714Z,9.10
2019-05-07T23:17:41.568Z,9.10
2019-05-07T23:20:09.437Z,9.20
2019-05-07T23:22:37.235Z,9.10
2019-05-07T23:25:05.104Z,9.10
2019-05-07T23:27:32.912Z,9.10
2019-05-07T23:30:02.600Z,9.10
2019-05-07T23:32:30.291Z,9.00
2019-05-07T23:34:58.067Z,9.10
2019-05-07T23:37:25.857Z,9.10
2019-05-07T23:39:55.593Z,8.90
2019-05-07T23:42:27.446Z,8.90
2019-05-07T23:44:55.173Z,8.90
2019-05-07T23:47:22.952Z,9.00
2019-05-07T23:49:52.398Z,9.00
2019-05-07T23:52:22.547Z,9.00
2019-05-07T23:54:52.137Z,9.00
2019-05-07T23:57:19.857Z,8.90
2019-05-07T23:59:47.714Z,8.70
